createdAt,value
2023-04-15T00:00:02.440Z,4.9
2023-04-15T00:15:02.713Z,4.6
2023-04-15T00:30:03.177Z,4.3
2023-04-15T00:45:02.590Z,4.0
2023-04-15T01:00:03.033Z,3.8
2023-04-15T01:15:02.469Z,3.6
2023-04-15T01:30:02.907Z,3.4
2023-04-15T01:45:02.451Z,3.2
2023-04-15T02:00:02.761Z,3.1
2023-04-15T02:15:03.258Z,2.8
2023-04-15T02:30:02.630Z,2.5
2023-04-15T02:45:03.137Z,2.3
2023-04-15T03:00:02.531Z,2.3
2023-04-15T03:15:02.976Z,2.1
2023-04-15T03:30:02.482Z,1.8
2023-04-15T03:45:02.822Z,1.5
2023-04-15T04:00:03.475Z,1.4
2023-04-15T04:15:02.696Z,1.4
2023-04-15T04:30:02.140Z,1.3
2023-04-15T04:45:02.605Z,1.4
2023-04-15T05:00:03.009Z,1.8
2023-04-15T05:15:02.496Z,3.6
2023-04-15T05:30:02.884Z,4.4
2023-04-15T05:45:02.499Z,4.8
2023-04-15T06:00:02.780Z,5.3
2023-04-15T06:15:03.229Z,5.2
2023-04-15T06:30:02.648Z,5.6
2023-04-15T06:45:03.139Z,6.0
2023-04-15T07:00:02.532Z,6.1
2023-04-15T07:15:02.958Z,6.3
2023-04-15T07:30:02.509Z,6.4
2023-04-15T07:45:02.837Z,6.7
2023-04-15T08:00:02.284Z,6.7
2023-04-15T08:15:02.711Z,6.8
2023-04-15T08:30:05.091Z,7.0
2023-04-15T08:45:02.622Z,7.2
2023-04-15T09:00:03.990Z,7.3
2023-04-15T09:15:02.555Z,7.5
2023-04-15T09:30:02.868Z,7.7
2023-04-15T09:45:02.543Z,7.8
2023-04-15T10:00:02.771Z,7.9
2023-04-15T10:15:03.224Z,8.0
2023-04-15T10:30:02.665Z,8.3
2023-04-15T10:45:03.105Z,8.3
2023-04-15T11:00:02.572Z,8.4
2023-04-15T11:15:02.979Z,8.3
2023-04-15T11:30:02.563Z,8.4
2023-04-15T11:45:02.865Z,8.3
2023-04-15T12:00:02.271Z,8.3
2023-04-15T12:15:02.715Z,8.3
2023-04-15T12:30:03.171Z,8.3
2023-04-15T12:45:02.616Z,8.3
2023-04-15T13:00:03.040Z,8.2
2023-04-15T13:15:04.968Z,8.2
2023-04-15T13:30:02.877Z,8.1
2023-04-15T13:45:02.320Z,8.1
2023-04-15T14:00:02.748Z,8.1
2023-04-15T14:15:03.226Z,8.2
2023-04-15T14:30:02.602Z,8.3
2023-04-15T14:45:03.120Z,8.4
2023-04-15T15:00:02.638Z,8.4
2023-04-15T15:15:06.876Z,8.4
2023-04-15T15:45:02.792Z,8.4
2023-04-15T16:15:02.680Z,8.4
2023-04-15T16:30:03.115Z,8.5
2023-04-15T16:45:02.645Z,8.4
2023-04-15T17:00:03.057Z,8.3
2023-04-15T17:15:02.636Z,8.3
2023-04-15T17:30:02.883Z,8.3
2023-04-15T17:45:02.389Z,8.3
2023-04-15T18:00:02.790Z,8.3
2023-04-15T18:15:03.192Z,8.4
2023-04-15T18:30:02.660Z,8.4
2023-04-15T18:45:03.104Z,8.3
2023-04-15T19:00:02.636Z,8.3
2023-04-15T19:15:02.994Z,8.3
2023-04-15T19:30:02.647Z,8.3
2023-04-15T19:45:02.838Z,8.3
2023-04-15T20:00:02.300Z,8.5
2023-04-15T20:15:02.717Z,8.4
2023-04-15T20:30:03.168Z,8.6
2023-04-15T20:45:02.688Z,8.6
2023-04-15T21:00:03.116Z,8.6
2023-04-15T21:15:02.668Z,8.6
2023-04-15T21:30:02.917Z,8.6
2023-04-15T21:45:02.355Z,8.6
2023-04-15T22:00:02.768Z,8.6
2023-04-15T22:15:03.255Z,8.7
2023-04-15T22:30:02.678Z,8.6
2023-04-15T22:45:03.126Z,8.7
2023-04-15T23:00:02.680Z,8.7
2023-04-15T23:15:02.978Z,8.7
2023-04-15T23:30:02.395Z,8.6
2023-04-15T23:45:02.837Z,8.6
